Time;durP1;ratioP1;P1;durP2;ratioP2;P2;SDS_P1;SDS_P2;PMS_P1;PMS_P2;Temp;Humidity;BMP_temperature;BMP_pressure;BME280_temperature;BME280_humidity;BME280_pressure;Samples;Min_cycle;Max_cycle;Signal;HPM_P1;HPM_P2
2023/11/05 00:03:43;;;;;;;2.95;0.90;;;;;;;8.24;98.88;96347.94;10455265;28;20055;-79
2023/11/05 00:08:48;;;;;;;3.45;1.35;;;;;;;8.24;99.21;96342.59;10453611;28;20048;-80
2023/11/05 00:13:51;;;;;;;4.28;1.10;;;;;;;8.16;99.00;96348.97;10442154;28;20392;-78
2023/11/05 00:18:53;;;;;;;8.20;1.05;;;;;;;8.23;98.30;96336.44;10441419;28;20639;-81
2023/11/05 00:23:58;;;;;;;5.47;1.10;;;;;;;8.26;97.44;96346.72;10443465;28;20129;-80
2023/11/05 00:29:01;;;;;;;1.13;0.70;;;;;;;8.18;97.75;96334.38;10444252;28;21278;-79
2023/11/05 00:34:04;;;;;;;3.47;0.80;;;;;;;8.31;96.81;96346.91;10452415;28;20044;-80
2023/11/05 00:39:09;;;;;;;1.45;0.57;;;;;;;8.31;95.89;96346.91;10447570;28;20052;-78
2023/11/05 00:44:12;;;;;;;3.42;0.70;;;;;;;8.44;95.09;96348.72;10461519;28;20087;-80
2023/11/05 00:49:15;;;;;;;3.90;0.73;;;;;;;8.56;94.21;96348.94;10458672;28;20068;-78
2023/11/05 00:54:19;;;;;;;1.50;0.70;;;;;;;8.52;93.32;96343.19;10454770;28;20136;-78
2023/11/05 00:59:22;;;;;;;2.70;0.60;;;;;;;8.55;92.89;96348.09;10453624;28;20051;-81
2023/11/05 01:04:25;;;;;;;1.45;0.88;;;;;;;8.74;90.80;96338.38;10456667;28;20523;-79
2023/11/05 01:09:29;;;;;;;2.42;0.90;;;;;;;8.90;90.80;96334.41;10450325;28;20145;-81
2023/11/05 01:14:32;;;;;;;2.80;0.93;;;;;;;8.91;89.55;96338.72;10451578;28;20056;-81
2023/11/05 01:19:35;;;;;;;2.97;0.52;;;;;;;8.90;89.30;96331.75;10448721;28;20504;-77
2023/11/05 01:24:39;;;;;;;2.03;0.50;;;;;;;8.98;88.14;96333.38;10449353;28;20055;-79
2023/11/05 01:29:42;;;;;;;4.60;0.77;;;;;;;8.95;87.95;96337.28;10450431;28;20047;-79
2023/11/05 01:34:45;;;;;;;4.10;0.60;;;;;;;8.98;88.35;96326.16;10439594;28;20049;-77
2023/11/05 01:39:49;;;;;;;4.20;0.95;;;;;;;8.92;87.38;96312.81;10458520;28;20131;-79
2023/11/05 01:44:52;;;;;;;1.30;0.60;;;;;;;9.03;86.08;96315.63;10458254;28;20048;-78
2023/11/05 01:49:55;;;;;;;6.93;0.93;;;;;;;9.16;85.33;96297.84;10456563;28;20044;-81
2023/11/05 01:55:02;;;;;;;12.18;1.63;;;;;;;9.23;86.40;96301.31;10451761;28;20048;-81
2023/11/05 02:00:07;;;;;;;2.67;0.93;;;;;;;9.15;85.28;96290.88;10463301;28;20048;-80
2023/11/05 02:05:13;;;;;;;3.20;0.60;;;;;;;9.13;85.66;96295.59;10449354;28;20416;-81
2023/11/05 02:10:18;;;;;;;5.30;0.77;;;;;;;9.13;85.63;96279.53;10452994;28;20790;-81
2023/11/05 02:15:21;;;;;;;6.78;1.88;;;;;;;8.96;84.77;96272.00;10448828;28;21287;-81
2023/11/05 02:20:24;;;;;;;5.57;1.20;;;;;;;8.96;83.59;96268.53;10455654;28;20044;-79
2023/11/05 02:25:29;;;;;;;2.70;1.05;;;;;;;9.13;83.85;96260.81;10443940;28;20055;-81
2023/11/05 02:30:31;;;;;;;5.22;1.33;;;;;;;9.03;83.43;96254.06;10442506;28;20127;-79
2023/11/05 02:35:35;;;;;;;7.70;1.35;;;;;;;9.15;82.67;96259.56;10448071;28;21106;-80
2023/11/05 02:40:39;;;;;;;6.60;3.10;;;;;;;9.32;82.81;96267.06;10444012;28;20040;-79
2023/11/05 02:45:42;;;;;;;4.55;0.65;;;;;;;9.19;82.27;96259.97;10442110;28;20056;-80
2023/11/05 02:50:45;;;;;;;6.82;1.20;;;;;;;9.17;82.72;96257.50;10444120;28;20502;-79
2023/11/05 02:55:49;;;;;;;4.63;0.93;;;;;;;9.16;83.42;96247.00;10446741;28;20056;-81
2023/11/05 03:00:52;;;;;;;3.55;0.93;;;;;;;9.18;82.63;96243.06;10442941;28;20052;-81
2023/11/05 03:05:55;;;;;;;4.55;0.90;;;;;;;9.25;82.23;96237.69;10446805;28;20045;-80
2023/11/05 03:10:59;;;;;;;6.05;1.38;;;;;;;9.33;81.63;96242.78;10441079;28;20054;-82
2023/11/05 03:16:02;;;;;;;4.50;0.85;;;;;;;9.36;82.70;96234.31;10438259;28;20060;-81
2023/11/05 03:21:06;;;;;;;3.95;1.10;;;;;;;9.26;82.46;96229.41;10446302;28;20063;-80
2023/11/05 03:26:10;;;;;;;1.42;0.70;;;;;;;9.29;82.95;96231.66;10446565;28;20056;-81
2023/11/05 03:31:14;;;;;;;5.22;1.95;;;;;;;9.31;83.28;96228.78;10441578;28;20086;-79
2023/11/05 03:36:17;;;;;;;7.10;1.98;;;;;;;9.02;87.54;96230.19;10443271;28;20056;-79
2023/11/05 03:41:21;;;;;;;6.50;1.00;;;;;;;8.71;91.96;96222.97;10439191;28;20040;-79
2023/11/05 03:46:24;;;;;;;7.65;1.45;;;;;;;8.67;96.48;96219.91;10435606;28;20052;-79
2023/11/05 03:51:27;;;;;;;6.80;1.27;;;;;;;8.47;99.33;96217.31;10442011;28;20051;-79
2023/11/05 03:56:32;;;;;;;7.55;1.65;;;;;;;8.42;100.00;96221.63;10442908;28;20769;-80
2023/11/05 04:01:35;;;;;;;6.38;1.15;;;;;;;8.56;100.00;96208.03;10436740;28;20833;-79
2023/11/05 04:06:38;;;;;;;9.05;1.50;;;;;;;8.44;100.00;96212.34;10431146;28;20056;-78
2023/11/05 04:11:42;;;;;;;3.88;1.00;;;;;;;8.35;100.00;96210.97;10437467;28;20053;-81
2023/11/05 04:16:45;;;;;;;7.35;2.00;;;;;;;8.43;100.00;96194.69;10430416;28;20049;-79
2023/11/05 04:21:48;;;;;;;4.88;1.20;;;;;;;8.35;100.00;96187.72;10447087;28;20512;-79
2023/11/05 04:26:52;;;;;;;5.30;1.27;;;;;;;8.37;100.00;96179.50;10427715;28;20052;-79
2023/11/05 04:31:56;;;;;;;11.50;1.88;;;;;;;8.44;100.00;96174.09;10437342;28;20041;-79
2023/11/05 04:37:00;;;;;;;3.28;1.55;;;;;;;8.25;100.00;96175.84;10437645;28;20946;-80
2023/11/05 04:42:06;;;;;;;2.05;0.60;;;;;;;8.41;100.00;96170.00;10427816;28;20059;-79
2023/11/05 04:47:09;;;;;;;3.80;1.00;;;;;;;8.34;100.00;96159.34;10426776;28;20048;-78
2023/11/05 04:52:11;;;;;;;2.65;1.10;;;;;;;8.34;100.00;96150.53;10424183;28;20056;-78
2023/11/05 04:57:16;;;;;;;4.53;0.73;;;;;;;8.39;100.00;96161.38;10419388;28;20045;-78
2023/11/05 05:02:18;;;;;;;3.72;0.93;;;;;;;8.21;100.00;96155.91;10434803;28;20056;-78
2023/11/05 05:07:21;;;;;;;1.48;0.57;;;;;;;8.30;100.00;96146.63;10461240;28;20056;-80
2023/11/05 05:12:26;;;;;;;3.65;0.80;;;;;;;8.40;100.00;96147.81;10449515;28;20703;-80
2023/11/05 05:17:29;;;;;;;5.18;0.50;;;;;;;8.33;100.00;96152.34;10440006;28;20056;-79
2023/11/05 05:22:32;;;;;;;1.60;0.70;;;;;;;8.40;100.00;96147.81;10442548;28;20052;-80
2023/11/05 05:27:36;;;;;;;2.33;0.90;;;;;;;8.39;100.00;96148.00;10437709;28;20049;-78
2023/11/05 05:32:39;;;;;;;0.68;0.60;;;;;;;8.36;100.00;96148.44;10453361;28;20619;-77
2023/11/05 05:37:42;;;;;;;1.65;0.68;;;;;;;8.35;100.00;96139.59;10479112;28;21242;-78
2023/11/05 05:42:46;;;;;;;2.05;0.55;;;;;;;8.42;100.00;96136.06;10457383;28;20058;-78
2023/11/05 05:47:49;;;;;;;2.17;0.50;;;;;;;8.43;100.00;96143.06;10440764;28;20048;-80
2023/11/05 05:52:52;;;;;;;2.65;0.70;;;;;;;8.38;100.00;96141.03;10443926;28;20416;-80
2023/11/05 05:57:57;;;;;;;2.70;0.90;;;;;;;8.49;100.00;96137.69;10445635;28;20681;-79
2023/11/05 06:03:00;;;;;;;2.50;0.90;;;;;;;8.51;100.00;96143.66;10450613;28;20056;-78
2023/11/05 06:08:04;;;;;;;0.73;0.47;;;;;;;8.55;100.00;96142.19;10441562;28;20114;-79
2023/11/05 06:13:08;;;;;;;3.90;0.52;;;;;;;8.53;100.00;96144.28;10434350;28;20061;-77
2023/11/05 06:18:11;;;;;;;0.77;0.38;;;;;;;8.65;100.00;96147.09;10444955;28;20048;-78
2023/11/05 06:23:14;;;;;;;1.13;0.40;;;;;;;8.59;100.00;96153.31;10444204;28;20049;-75
2023/11/05 06:28:18;;;;;;;1.55;0.30;;;;;;;8.72;100.00;96158.56;10449183;28;20052;-79
2023/11/05 06:33:22;;;;;;;0.20;0.10;;;;;;;8.59;100.00;96159.47;10447608;28;20077;-78
2023/11/05 06:38:25;;;;;;;2.47;0.32;;;;;;;8.73;100.00;96162.88;10441596;28;20059;-78
2023/11/05 06:43:29;;;;;;;0.52;0.35;;;;;;;8.92;100.00;96168.31;10440979;28;20064;-79
2023/11/05 06:48:33;;;;;;;0.68;0.40;;;;;;;8.63;100.00;96175.88;10438412;28;20044;-78
2023/11/05 06:53:36;;;;;;;0.50;0.30;;;;;;;8.68;100.00;96177.94;10439573;28;20049;-79
2023/11/05 06:58:41;;;;;;;2.03;0.60;;;;;;;8.70;100.00;96182.03;10438553;27;20055;-80
2023/11/05 07:03:44;;;;;;;0.40;0.30;;;;;;;8.64;100.00;96180.22;10445258;28;20125;-78
2023/11/05 07:08:47;;;;;;;2.10;0.38;;;;;;;8.83;100.00;96189.13;10449166;28;20098;-77
2023/11/05 07:13:52;;;;;;;4.55;0.50;;;;;;;8.70;100.00;96186.56;10454000;28;20054;-79
2023/11/05 07:18:56;;;;;;;1.17;0.47;;;;;;;8.72;100.00;96205.88;10452808;28;20052;-75
2023/11/05 07:23:59;;;;;;;4.60;0.50;;;;;;;8.77;100.00;96216.75;10449297;28;20113;-79
2023/11/05 07:29:03;;;;;;;2.10;0.45;;;;;;;8.81;100.00;96216.13;10450191;28;20066;-78
2023/11/05 07:34:07;;;;;;;0.90;0.70;;;;;;;8.84;100.00;96212.19;10456571;28;20055;-79
2023/11/05 07:39:10;;;;;;;1.15;0.77;;;;;;;8.99;100.00;96215.38;10455614;28;20558;-79
2023/11/05 07:44:14;;;;;;;1.27;0.60;;;;;;;9.03;100.00;96210.44;10444046;28;20098;-78
2023/11/05 07:49:17;;;;;;;3.40;0.60;;;;;;;8.87;100.00;96217.13;10444051;28;20048;-78
2023/11/05 07:54:20;;;;;;;1.30;0.43;;;;;;;8.91;100.00;96215.63;10441292;28;20111;-78
2023/11/05 07:59:24;;;;;;;0.93;0.47;;;;;;;9.19;100.00;96220.63;10452163;28;21218;-79
2023/11/05 08:04:27;;;;;;;2.95;0.63;;;;;;;9.18;100.00;96215.47;10451382;28;20119;-78
2023/11/05 08:09:32;;;;;;;3.03;0.55;;;;;;;9.01;100.00;96224.03;10444780;28;20055;-78
2023/11/05 08:14:36;;;;;;;2.17;0.35;;;;;;;9.09;100.00;96228.31;10454344;28;20058;-79
2023/11/05 08:19:39;;;;;;;0.68;0.40;;;;;;;9.22;100.00;96227.41;10451121;28;20051;-79
2023/11/05 08:24:44;;;;;;;0.50;0.40;;;;;;;9.33;100.00;96237.41;10448057;28;20115;-79
2023/11/05 08:29:49;;;;;;;1.25;0.60;;;;;;;9.42;100.00;96246.81;10439274;28;20048;-80
2023/11/05 08:34:53;;;;;;;3.53;0.63;;;;;;;9.42;100.00;96244.13;10450864;28;20044;-78
2023/11/05 08:39:56;;;;;;;0.30;0.30;;;;;;;9.46;100.00;96252.53;10438598;28;20052;-80
2023/11/05 08:45:00;;;;;;;5.32;0.75;;;;;;;9.72;98.84;96251.53;10448725;28;20055;-80
2023/11/05 08:50:03;;;;;;;4.03;0.50;;;;;;;9.51;98.67;96266.91;10445662;28;20688;-77
2023/11/05 08:55:10;;;;;;;1.55;0.82;;;;;;;9.68;98.99;96267.22;10437765;28;20701;-79
2023/11/05 09:00:15;;;;;;;0.85;0.40;;;;;;;9.72;97.82;96273.78;10446656;28;20056;-78
2023/11/05 09:05:18;;;;;;;0.45;0.40;;;;;;;9.65;96.14;96278.38;10443352;28;20063;-79
2023/11/05 09:10:21;;;;;;;1.40;0.30;;;;;;;9.67;96.73;96288.88;10444428;28;20055;-79
2023/11/05 09:15:25;;;;;;;0.57;0.50;;;;;;;9.66;96.81;96292.59;10430866;28;20554;-79
2023/11/05 09:20:28;;;;;;;0.45;0.30;;;;;;;10.27;97.53;96304.44;10452982;28;20045;-82
2023/11/05 09:25:35;;;;;;;0.43;0.43;;;;;;;10.43;90.25;96322.66;10457165;28;20538;-79
2023/11/05 09:30:42;;;;;;;0.93;0.40;;;;;;;10.77;92.79;96321.22;10466051;28;20135;-79
2023/11/05 09:35:46;;;;;;;1.48;0.47;;;;;;;10.66;90.57;96338.06;10461145;28;20878;-80
2023/11/05 09:40:49;;;;;;;0.73;0.28;;;;;;;11.05;91.86;96330.59;10459239;28;20056;-82
2023/11/05 09:45:53;;;;;;;0.17;0.17;;;;;;;11.17;89.16;96336.06;10459368;28;20048;-79
2023/11/05 09:51:00;;;;;;;0.88;0.57;;;;;;;11.20;89.96;96344.50;10454164;28;20479;-81
2023/11/05 09:56:04;;;;;;;1.67;0.30;;;;;;;10.59;88.31;96372.22;10466909;28;20056;-80
2023/11/05 10:01:08;;;;;;;5.60;0.55;;;;;;;10.42;92.29;96368.47;10458160;28;20056;-81
2023/11/05 10:06:17;;;;;;;1.45;0.65;;;;;;;11.37;90.84;96365.34;10452033;28;20057;-81
2023/11/05 10:11:20;;;;;;;0.68;0.30;;;;;;;11.86;81.73;96382.25;10458949;28;20073;-81
2023/11/05 10:16:27;;;;;;;0.80;0.30;;;;;;;12.13;84.30;96388.84;10468514;28;20067;-78
2023/11/05 10:21:37;;;;;;;0.50;0.25;;;;;;;12.35;79.45;96391.81;10479985;28;20047;-80
2023/11/05 10:26:41;;;;;;;3.53;0.50;;;;;;;11.77;80.94;96397.06;10453566;28;21188;-79
2023/11/05 10:31:46;;;;;;;0.57;0.38;;;;;;;10.94;84.56;96407.38;10452908;28;20419;-80
2023/11/05 10:36:49;;;;;;;0.35;0.20;;;;;;;11.28;85.32;96402.47;10447673;28;21731;-81
2023/11/05 10:41:52;;;;;;;0.35;0.28;;;;;;;10.92;83.11;96422.88;10438686;28;20677;-79
2023/11/05 10:46:58;;;;;;;1.45;0.40;;;;;;;10.79;85.93;96418.44;10443162;28;20040;-79
2023/11/05 10:52:03;;;;;;;0.38;0.28;;;;;;;11.03;84.98;96432.88;10444640;28;20090;-79
2023/11/05 10:57:40;;;;;;;0.85;0.30;;;;;;;10.39;87.55;96439.44;10452087;28;20044;-79
2023/11/05 11:02:44;;;;;;;2.92;1.15;;;;;;;10.54;86.30;96466.78;10443447;28;20041;-81
2023/11/05 11:07:58;;;;;;;1.38;0.47;;;;;;;10.54;86.88;96450.69;10437859;28;20057;-78
2023/11/05 11:13:11;;;;;;;8.70;0.95;;;;;;;10.62;87.79;96454.97;10449180;28;20075;-81
2023/11/05 11:18:18;;;;;;;1.10;0.70;;;;;;;11.20;84.28;96461.84;10441220;28;20044;-79
2023/11/05 11:23:22;;;;;;;1.50;0.90;;;;;;;11.75;83.08;96463.66;10450140;28;20140;-81
2023/11/05 11:28:25;;;;;;;4.97;0.70;;;;;;;11.96;78.90;96465.84;10450054;28;20049;-82
2023/11/05 11:33:30;;;;;;;1.17;0.60;;;;;;;11.23;81.23;96474.81;10459548;28;20058;-83
2023/11/05 11:38:33;;;;;;;2.53;0.77;;;;;;;11.29;81.37;96481.97;10438857;28;21191;-79
2023/11/05 11:43:36;;;;;;;1.73;0.60;;;;;;;11.56;79.82;96498.63;10445713;28;20063;-80
2023/11/05 11:48:41;;;;;;;1.52;0.82;;;;;;;11.33;81.47;96514.59;10447817;28;21193;-81
2023/11/05 11:53:44;;;;;;;1.25;0.70;;;;;;;11.27;81.56;96517.13;10445476;28;20400;-79
2023/11/05 11:58:47;;;;;;;2.60;0.98;;;;;;;11.14;81.87;96519.13;10451983;28;20529;-80
2023/11/05 12:03:51;;;;;;;2.75;0.80;;;;;;;11.13;81.87;96529.03;10446910;28;20679;-81
2023/11/05 12:08:55;;;;;;;3.40;1.20;;;;;;;10.74;84.12;96546.28;10454012;28;20609;-81
2023/11/05 12:14:02;;;;;;;2.13;1.10;;;;;;;10.28;91.94;96560.84;10433762;28;20045;-83
2023/11/05 12:19:08;;;;;;;3.40;1.50;;;;;;;10.36;98.03;96549.88;10444083;28;20048;-80
2023/11/05 12:24:11;;;;;;;3.50;1.70;;;;;;;9.89;100.00;96571.56;10434133;28;20440;-80
2023/11/05 12:29:14;;;;;;;3.38;1.85;;;;;;;10.47;100.00;96572.50;10447704;28;20084;-82
2023/11/05 12:34:18;;;;;;;3.40;1.52;;;;;;;10.32;100.00;96584.34;10444847;28;20049;-79
2023/11/05 12:39:23;;;;;;;4.85;2.00;;;;;;;9.89;100.00;96582.28;10447897;28;20051;-79
2023/11/05 12:44:26;;;;;;;3.42;2.10;;;;;;;9.94;100.00;96595.88;10447111;28;20052;-81
2023/11/05 12:49:30;;;;;;;3.20;2.42;;;;;;;9.62;100.00;96610.16;10440811;28;20142;-81
2023/11/05 12:54:33;;;;;;;7.10;2.60;;;;;;;9.82;100.00;96610.09;10446206;28;20052;-81
2023/11/05 12:59:39;;;;;;;3.53;2.67;;;;;;;9.50;100.00;96612.66;10445657;28;20995;-82
2023/11/05 13:04:44;;;;;;;5.90;3.45;;;;;;;9.70;100.00;96607.25;10450121;28;20055;-80
2023/11/05 13:09:48;;;;;;;3.45;2.80;;;;;;;9.38;100.00;96625.03;10439523;28;20679;-80
2023/11/05 13:14:50;;;;;;;3.70;2.42;;;;;;;9.51;100.00;96641.09;10461018;28;20063;-82
2023/11/05 13:19:55;;;;;;;5.95;2.90;;;;;;;9.37;100.00;96634.94;10454112;28;21240;-81
2023/11/05 13:24:58;;;;;;;3.33;2.38;;;;;;;9.53;100.00;96647.06;10447723;28;20059;-81
2023/11/05 13:30:01;;;;;;;4.03;2.88;;;;;;;9.53;100.00;96648.94;10451353;28;20075;-80
2023/11/05 13:35:06;;;;;;;6.15;3.08;;;;;;;9.68;100.00;96666.44;10448138;28;20072;-80
2023/11/05 13:40:10;;;;;;;8.18;3.72;;;;;;;9.60;100.00;96671.16;10447754;28;20064;-81
2023/11/05 13:45:14;;;;;;;3.78;2.88;;;;;;;9.33;100.00;96686.44;10446417;28;20423;-81
2023/11/05 13:50:18;;;;;;;5.50;4.35;;;;;;;9.15;100.00;96687.06;10469538;28;20872;-81
2023/11/05 13:55:23;;;;;;;4.55;2.60;;;;;;;9.11;100.00;96707.25;10458017;28;20052;-80
2023/11/05 14:00:29;;;;;;;3.38;3.08;;;;;;;9.02;100.00;96726.19;10454497;28;20594;-81
2023/11/05 14:05:33;;;;;;;2.70;2.35;;;;;;;8.88;100.00;96716.44;10448744;28;20055;-80
2023/11/05 14:10:37;;;;;;;3.15;2.67;;;;;;;9.11;100.00;96745.53;10457584;28;20040;-79
2023/11/05 14:15:40;;;;;;;1.95;1.85;;;;;;;9.10;100.00;96761.78;10443957;28;20047;-80
2023/11/05 14:20:44;;;;;;;2.92;1.63;;;;;;;8.31;100.00;96763.13;10453369;28;20041;-78
2023/11/05 14:25:48;;;;;;;2.42;2.22;;;;;;;8.63;100.00;96783.06;10453517;28;20435;-80
2023/11/05 14:30:51;;;;;;;5.85;3.00;;;;;;;8.78;100.00;96810.50;10451011;28;20118;-77
2023/11/05 14:35:55;;;;;;;5.13;4.03;;;;;;;8.67;100.00;96815.59;10446873;28;20048;-78
2023/11/05 14:40:58;;;;;;;6.78;3.45;;;;;;;8.30;100.00;96844.34;10446782;28;20051;-79
2023/11/05 14:46:01;;;;;;;5.82;2.65;;;;;;;8.47;100.00;96863.63;10448778;28;20052;-78
2023/11/05 14:51:06;;;;;;;6.28;3.47;;;;;;;8.64;100.00;96874.81;10447275;28;20044;-79
2023/11/05 14:56:10;;;;;;;10.40;3.33;;;;;;;8.76;100.00;96882.09;10467518;28;20052;-76
2023/11/05 15:01:13;;;;;;;6.47;3.05;;;;;;;8.66;100.00;96895.00;10487083;28;20049;-76
2023/11/05 15:06:21;;;;;;;4.38;3.25;;;;;;;8.73;100.00;96906.59;10470016;28;20056;-79
2023/11/05 15:11:27;;;;;;;12.63;4.05;;;;;;;8.79;100.00;96913.81;10453136;28;20044;-79
2023/11/05 15:16:31;;;;;;;4.78;3.53;;;;;;;8.66;100.00;96937.00;10452446;28;20128;-80
2023/11/05 15:21:39;;;;;;;5.82;3.08;;;;;;;8.82;100.00;96928.66;10455026;28;20052;-78
2023/11/05 15:26:42;;;;;;;2.72;2.45;;;;;;;8.88;100.00;96953.78;10446558;28;20040;-79
2023/11/05 15:31:45;;;;;;;6.25;3.17;;;;;;;8.81;100.00;96945.75;10452231;28;20135;-77
2023/11/05 15:36:50;;;;;;;6.03;3.10;;;;;;;9.10;100.00;96968.75;10455389;28;21027;-78
2023/11/05 15:41:53;;;;;;;6.10;3.25;;;;;;;8.72;100.00;96982.53;10452511;28;20078;-77
2023/11/05 15:46:56;;;;;;;4.25;3.03;;;;;;;9.11;100.00;97009.75;10442024;28;20045;-80
2023/11/05 15:52:01;;;;;;;6.07;2.88;;;;;;;8.99;100.00;97010.28;10446679;28;20036;-79
2023/11/05 15:57:04;;;;;;;4.72;3.30;;;;;;;8.53;100.00;97068.78;10444588;28;21279;-79
2023/11/05 16:02:09;;;;;;;7.75;3.05;;;;;;;8.29;100.00;97038.72;10468402;28;20108;-79
2023/11/05 16:07:13;;;;;;;8.02;4.15;;;;;;;8.52;100.00;97069.81;10450679;28;20080;-79
2023/11/05 16:12:20;;;;;;;6.13;3.80;;;;;;;8.39;100.00;97084.69;10447521;28;20052;-80
2023/11/05 16:17:25;;;;;;;7.47;4.70;;;;;;;8.50;100.00;97087.88;10449538;28;21184;-78
2023/11/05 16:22:29;;;;;;;6.13;5.05;;;;;;;8.48;100.00;97104.16;10445801;28;20049;-80
2023/11/05 16:27:32;;;;;;;9.60;4.40;;;;;;;8.31;100.00;97113.38;10447529;28;20566;-79
2023/11/05 16:32:35;;;;;;;6.68;5.13;;;;;;;8.46;100.00;97126.75;10451022;28;20055;-80
2023/11/05 16:37:41;;;;;;;7.68;4.80;;;;;;;8.26;100.00;97143.38;10438474;28;20121;-79
2023/11/05 16:42:45;;;;;;;9.77;6.70;;;;;;;8.24;100.00;97152.59;10449387;28;21356;-80
2023/11/05 16:47:48;;;;;;;12.02;5.43;;;;;;;8.25;100.00;97175.63;10456155;28;20624;-79
2023/11/05 16:52:53;;;;;;;10.98;6.65;;;;;;;8.25;100.00;97191.69;10447350;28;20052;-78
2023/11/05 16:57:56;;;;;;;9.68;3.92;;;;;;;8.00;100.00;97220.56;10446068;28;20145;-78
2023/11/05 17:03:02;;;;;;;7.80;4.72;;;;;;;8.28;100.00;97221.56;10444396;28;20368;-78
2023/11/05 17:08:07;;;;;;;9.73;4.78;;;;;;;8.33;100.00;97248.56;10451305;28;20139;-79
2023/11/05 17:13:10;;;;;;;8.73;3.60;;;;;;;8.13;100.00;97247.47;10443731;28;20052;-79
2023/11/05 17:18:15;;;;;;;8.02;3.88;;;;;;;8.10;100.00;97274.56;10447373;28;20040;-79
2023/11/05 17:23:19;;;;;;;6.78;2.65;;;;;;;8.50;100.00;97280.47;10446543;28;21641;-78
2023/11/05 17:28:22;;;;;;;7.70;4.68;;;;;;;8.63;100.00;97298.53;10451963;28;20547;-77
2023/11/05 17:33:25;;;;;;;5.07;3.78;;;;;;;8.75;100.00;97302.38;10442248;28;20047;-79
2023/11/05 17:38:29;;;;;;;5.25;3.10;;;;;;;8.56;100.00;97312.66;10448993;28;20075;-79
2023/11/05 17:43:32;;;;;;;10.13;4.80;;;;;;;8.57;100.00;97314.31;10454071;28;20095;-79
2023/11/05 17:48:35;;;;;;;3.28;2.03;;;;;;;8.26;100.00;97337.75;10457335;28;20052;-78
2023/11/05 17:53:40;;;;;;;7.03;2.40;;;;;;;8.28;100.00;97346.38;10455502;28;20060;-79
2023/11/05 17:58:42;;;;;;;4.43;2.00;;;;;;;8.03;100.00;97367.19;10457499;28;20064;-77
2023/11/05 18:03:46;;;;;;;5.53;2.72;;;;;;;8.43;100.00;97367.81;10447750;28;20063;-79
2023/11/05 18:08:52;;;;;;;7.43;3.00;;;;;;;8.13;100.00;97389.97;10444920;28;20128;-77
2023/11/05 18:13:55;;;;;;;5.85;2.80;;;;;;;8.03;100.00;97384.06;10463824;28;20044;-79
2023/11/05 18:18:59;;;;;;;12.80;3.45;;;;;;;7.84;100.00;97397.91;10456610;28;20047;-80
2023/11/05 18:24:03;;;;;;;8.48;3.55;;;;;;;7.47;100.00;97405.72;10457194;28;20791;-79
2023/11/05 18:29:06;;;;;;;9.45;6.95;;;;;;;7.57;100.00;97418.84;10454812;28;20052;-79
2023/11/05 18:34:09;;;;;;;11.57;6.95;;;;;;;7.59;100.00;97432.00;10458412;28;20060;-78
2023/11/05 18:39:14;;;;;;;13.82;8.80;;;;;;;7.82;100.00;97461.41;10456573;28;20056;-80
2023/11/05 18:44:17;;;;;;;12.20;5.40;;;;;;;7.59;100.00;97464.88;10447063;28;20051;-78
2023/11/05 18:49:20;;;;;;;9.48;4.07;;;;;;;7.58;100.00;97462.41;10442074;28;20041;-78
2023/11/05 18:54:24;;;;;;;13.48;6.28;;;;;;;7.63;100.00;97471.56;10457330;28;20051;-80
2023/11/05 18:59:29;;;;;;;7.88;4.68;;;;;;;7.47;100.00;97496.50;10440767;28;20048;-79
2023/11/05 19:04:32;;;;;;;15.25;5.68;;;;;;;7.65;100.00;97496.25;10441071;28;20053;-78
2023/11/05 19:09:37;;;;;;;6.13;3.80;;;;;;;7.74;100.00;97499.72;10440708;28;20049;-79
2023/11/05 19:14:40;;;;;;;11.85;5.18;;;;;;;7.67;100.00;97510.25;10439207;28;20656;-79
2023/11/05 19:19:43;;;;;;;8.00;3.55;;;;;;;7.85;100.00;97549.25;10434646;28;20394;-78
2023/11/05 19:24:48;;;;;;;6.00;2.65;;;;;;;8.01;100.00;97543.81;10437441;28;20136;-77
2023/11/05 19:29:51;;;;;;;6.65;3.30;;;;;;;7.89;100.00;97567.41;10447324;28;20052;-77
2023/11/05 19:34:54;;;;;;;5.88;2.38;;;;;;;8.02;100.00;97582.03;10445913;28;20049;-80
2023/11/05 19:39:58;;;;;;;6.25;1.95;;;;;;;7.98;100.00;97600.28;10441776;28;20051;-78
2023/11/05 19:45:01;;;;;;;3.55;1.85;;;;;;;8.02;100.00;97598.09;10462450;28;20102;-75
2023/11/05 19:50:05;;;;;;;9.73;2.33;;;;;;;8.17;97.34;97626.56;10479754;28;20052;-78
2023/11/05 19:55:11;;;;;;;8.48;2.50;;;;;;;8.07;95.24;97633.97;10466817;28;20056;-80
2023/11/05 20:00:15;;;;;;;8.23;1.95;;;;;;;8.27;95.92;97668.28;10444341;28;20056;-79
2023/11/05 20:05:18;;;;;;;7.70;2.40;;;;;;;8.34;93.71;97656.72;10452517;28;20054;-81
2023/11/05 20:10:23;;;;;;;6.95;2.60;;;;;;;8.29;93.53;97685.81;10436213;28;20045;-82
2023/11/05 20:15:26;;;;;;;6.47;3.33;;;;;;;8.61;94.04;97700.88;10450158;28;20056;-78
2023/11/05 20:20:30;;;;;;;6.45;2.60;;;;;;;8.46;92.98;97712.50;10450112;28;20456;-78
2023/11/05 20:25:35;;;;;;;3.42;1.63;;;;;;;8.36;91.08;97694.81;10455083;28;20586;-79
2023/11/05 20:30:38;;;;;;;8.60;1.90;;;;;;;8.39;89.62;97737.25;10443987;28;20136;-80
2023/11/05 20:35:41;;;;;;;6.78;3.10;;;;;;;8.71;89.71;97750.66;10459576;28;20885;-81
2023/11/05 20:40:46;;;;;;;2.30;1.55;;;;;;;8.59;88.41;97767.13;10456698;28;20049;-79
2023/11/05 20:45:49;;;;;;;11.88;1.45;;;;;;;8.81;87.89;97786.91;10451819;28;20418;-80
2023/11/05 20:50:52;;;;;;;6.28;2.65;;;;;;;8.52;87.53;97789.38;10453445;28;20463;-80
2023/11/05 20:55:57;;;;;;;10.25;2.10;;;;;;;8.72;86.63;97813.88;10456782;28;20039;-80
2023/11/05 21:01:00;;;;;;;7.60;1.75;;;;;;;8.82;86.10;97817.16;10456947;28;20350;-80
2023/11/05 21:06:03;;;;;;;2.88;1.60;;;;;;;8.83;84.94;97838.41;10458539;28;20048;-81
2023/11/05 21:11:08;;;;;;;7.88;1.73;;;;;;;8.93;85.01;97864.94;10461951;28;20052;-79
2023/11/05 21:16:11;;;;;;;6.05;1.83;;;;;;;8.78;85.15;97861.38;10469323;28;20059;-78
2023/11/05 21:21:14;;;;;;;5.18;1.70;;;;;;;8.63;85.21;97869.25;10467245;28;20059;-80
2023/11/05 21:26:18;;;;;;;2.17;1.52;;;;;;;8.71;84.47;97882.63;10465816;28;20045;-81
2023/11/05 21:31:21;;;;;;;1.98;1.42;;;;;;;8.70;84.39;97867.59;10470243;28;20549;-79
2023/11/05 21:36:24;;;;;;;4.40;1.45;;;;;;;8.78;84.72;97906.88;10460489;28;20052;-82
2023/11/05 21:41:29;;;;;;;6.70;1.45;;;;;;;9.03;83.70;97923.66;10458489;28;20053;-81
2023/11/05 21:46:32;;;;;;;2.88;1.25;;;;;;;8.76;84.33;97939.13;10457224;28;20062;-79
2023/11/05 21:51:35;;;;;;;3.55;1.30;;;;;;;8.87;83.43;97940.63;10459802;28;20044;-80
2023/11/05 21:56:40;;;;;;;5.18;1.27;;;;;;;8.92;83.23;97966.88;10446359;28;20055;-80
2023/11/05 22:01:43;;;;;;;3.38;1.30;;;;;;;8.76;84.45;97981.13;10454475;28;20155;-80
2023/11/05 22:06:46;;;;;;;4.45;1.40;;;;;;;8.57;85.40;97993.03;10458236;28;20048;-79
2023/11/05 22:11:50;;;;;;;5.22;1.38;;;;;;;8.89;83.87;97994.00;10454522;28;20388;-81
2023/11/05 22:16:54;;;;;;;5.82;1.85;;;;;;;8.77;84.35;97993.50;10463261;28;20245;-78
2023/11/05 22:21:58;;;;;;;5.80;1.65;;;;;;;8.76;83.43;98027.47;10453140;28;21068;-80
2023/11/05 22:27:02;;;;;;;7.45;1.48;;;;;;;9.03;83.53;98018.19;10459182;28;20048;-81
2023/11/05 22:32:07;;;;;;;4.05;1.73;;;;;;;8.78;84.81;98020.09;10470679;28;20094;-79
2023/11/05 22:37:10;;;;;;;6.80;2.25;;;;;;;8.79;85.58;98047.69;10461314;28;20053;-82
2023/11/05 22:42:14;;;;;;;4.97;1.95;;;;;;;8.67;86.18;98041.03;10463996;28;20049;-80
2023/11/05 22:47:18;;;;;;;4.20;1.40;;;;;;;8.69;87.22;98060.41;10455724;28;20113;-80
2023/11/05 22:52:20;;;;;;;6.28;2.58;;;;;;;8.68;89.09;98048.88;10459551;28;20045;-79
2023/11/05 22:57:26;;;;;;;8.75;2.28;;;;;;;8.43;91.97;98076.63;10453802;28;20045;-80
2023/11/05 23:02:29;;;;;;;4.85;2.20;;;;;;;8.13;95.30;98089.63;10451997;28;20055;-80
2023/11/05 23:07:32;;;;;;;7.10;2.22;;;;;;;8.37;92.68;98100.38;10453935;28;20058;-79
2023/11/05 23:12:37;;;;;;;2.47;1.20;;;;;;;8.40;91.27;98099.19;10449053;28;20052;-81
2023/11/05 23:17:40;;;;;;;5.93;1.90;;;;;;;8.53;89.39;98109.41;10449188;28;20129;-83
2023/11/05 23:22:43;;;;;;;2.00;1.38;;;;;;;8.47;89.67;98121.63;10451062;28;20056;-80
2023/11/05 23:27:48;;;;;;;6.35;1.58;;;;;;;8.35;89.97;98121.09;10443995;28;20916;-81
2023/11/05 23:32:51;;;;;;;4.50;2.28;;;;;;;8.44;89.39;98129.13;10455813;28;20056;-78
2023/11/05 23:37:54;;;;;;;7.78;2.08;;;;;;;8.59;88.37;98146.22;10451913;28;20127;-82